createdAt,value
2018-05-08T00:01:48.813Z,12.80
2018-05-08T00:04:16.305Z,12.70
2018-05-08T00:06:43.825Z,12.70
2018-05-08T00:09:11.316Z,12.70
2018-05-08T00:11:38.820Z,12.60
2018-05-08T00:14:06.321Z,12.60
2018-05-08T00:16:33.818Z,12.60
2018-05-08T00:19:01.326Z,12.50
2018-05-08T00:21:28.816Z,12.50
2018-05-08T00:23:56.395Z,12.40
2018-05-08T00:26:23.878Z,12.40
2018-05-08T00:28:52.143Z,12.30
2018-05-08T00:31:19.643Z,12.30
2018-05-08T00:33:47.163Z,12.30
2018-05-08T00:36:14.641Z,12.20
2018-05-08T00:38:42.895Z,12.10
2018-05-08T00:41:10.401Z,12.10
2018-05-08T00:43:37.903Z,12.10
2018-05-08T00:46:05.412Z,12.10
2018-05-08T00:48:32.911Z,12.00
2018-05-08T00:51:00.419Z,12.00
2018-05-08T00:53:27.914Z,12.00
2018-05-08T00:55:55.426Z,12.00
2018-05-08T00:58:23.674Z,11.90
2018-05-08T01:00:51.157Z,11.90
2018-05-08T01:03:19.438Z,11.90
2018-05-08T01:05:46.967Z,11.90
2018-05-08T01:08:15.252Z,11.80
2018-05-08T01:10:43.514Z,11.70
2018-05-08T01:13:11.007Z,11.70
2018-05-08T01:15:38.511Z,11.70
2018-05-08T01:18:06.023Z,11.70
2018-05-08T01:20:33.504Z,11.70
2018-05-08T01:23:01.026Z,11.60
2018-05-08T01:25:29.291Z,11.60
2018-05-08T01:27:56.777Z,11.50
2018-05-08T01:30:24.279Z,11.60
2018-05-08T01:32:51.757Z,11.60
2018-05-08T01:35:19.271Z,11.50
2018-05-08T01:37:46.762Z,11.40
2018-05-08T01:40:14.265Z,11.40
2018-05-08T01:42:41.766Z,11.40
2018-05-08T01:45:09.270Z,11.30
2018-05-08T01:47:37.539Z,11.30
2018-05-08T01:50:05.801Z,11.30
2018-05-08T01:52:34.065Z,11.20
2018-05-08T01:55:01.559Z,11.20
2018-05-08T01:57:29.831Z,11.10
2018-05-08T01:59:58.094Z,11.10
2018-05-08T02:02:25.603Z,11.10
2018-05-08T02:04:53.098Z,11.10
2018-05-08T02:07:20.596Z,11.10
2018-05-08T02:09:48.077Z,11.10
2018-05-08T02:12:15.607Z,11.10
2018-05-08T02:14:43.097Z,11.00
2018-05-08T02:17:10.604Z,10.90
2018-05-08T02:19:38.875Z,10.80
2018-05-08T02:22:06.369Z,10.80
2018-05-08T02:24:33.878Z,10.80
2018-05-08T02:27:01.370Z,10.80
2018-05-08T02:29:29.651Z,10.90
2018-05-08T02:31:57.151Z,10.90
2018-05-08T02:34:24.658Z,11.00
2018-05-08T02:36:52.901Z,10.80
2018-05-08T02:39:20.389Z,10.80
2018-05-08T02:41:48.668Z,10.70
2018-05-08T02:44:16.930Z,10.70
2018-05-08T02:46:45.209Z,10.60
2018-05-08T02:49:13.459Z,10.60
2018-05-08T02:51:40.965Z,10.60
2018-05-08T02:54:08.464Z,10.60
2018-05-08T02:56:35.974Z,10.60
2018-05-08T02:59:03.475Z,10.50
2018-05-08T03:01:31.025Z,10.50
2018-05-08T03:03:58.514Z,10.50
2018-05-08T03:06:26.001Z,10.50
2018-05-08T03:08:54.273Z,10.40
2018-05-08T03:11:22.526Z,10.40
2018-05-08T03:13:50.035Z,10.40
2018-05-08T03:16:17.534Z,10.40
2018-05-08T03:18:46.548Z,10.30
2018-05-08T03:21:14.048Z,10.30
2018-05-08T03:23:41.561Z,10.30
2018-05-08T03:26:09.049Z,10.30
2018-05-08T03:28:36.600Z,10.20
2018-05-08T03:31:04.873Z,10.20
2018-05-08T03:33:33.142Z,10.20
2018-05-08T03:36:01.417Z,10.10
2018-05-08T03:38:29.684Z,10.10
2018-05-08T03:40:57.209Z,10.10
2018-05-08T03:43:24.693Z,10.00
2018-05-08T03:45:52.194Z,9.90
2018-05-08T03:48:19.695Z,9.90
2018-05-08T03:50:47.211Z,9.90
2018-05-08T03:53:14.712Z,9.90
2018-05-08T03:55:42.214Z,9.90
2018-05-08T03:58:09.732Z,9.90
2018-05-08T04:00:49.050Z,9.80
2018-05-08T04:03:29.356Z,9.80
2018-05-08T04:08:56.616Z,9.80
2018-05-08T04:11:24.874Z,9.70
2018-05-08T04:13:52.379Z,9.70
2018-05-08T04:16:19.862Z,9.70
2018-05-08T04:18:47.391Z,9.80
2018-05-08T04:21:14.898Z,9.80
2018-05-08T04:23:42.421Z,9.80
2018-05-08T04:26:09.966Z,9.60
2018-05-08T04:28:37.458Z,9.60
2018-05-08T04:31:04.969Z,9.60
2018-05-08T04:33:33.219Z,9.70
2018-05-08T04:36:00.723Z,9.60
2018-05-08T04:38:28.217Z,9.70
2018-05-08T04:40:55.727Z,9.70
2018-05-08T04:43:24.037Z,9.70
2018-05-08T04:45:51.568Z,9.70
2018-05-08T04:48:19.078Z,9.80
2018-05-08T04:50:46.584Z,9.80
2018-05-08T04:53:14.126Z,9.90
2018-05-08T04:55:42.393Z,9.90
2018-05-08T04:58:09.923Z,9.90
2018-05-08T05:00:37.408Z,10.00
2018-05-08T05:03:04.931Z,9.90
2018-05-08T05:05:32.432Z,9.90
2018-05-08T05:08:00.710Z,10.00
2018-05-08T05:10:29.004Z,10.10
2018-05-08T05:12:56.509Z,10.10
2018-05-08T05:15:24.038Z,10.20
2018-05-08T05:17:51.529Z,10.20
2018-05-08T05:20:19.067Z,10.30
2018-05-08T05:22:46.575Z,10.40
2018-05-08T05:25:14.107Z,10.50
2018-05-08T05:27:41.613Z,10.50
2018-05-08T05:30:09.181Z,10.60
2018-05-08T05:32:36.697Z,10.60
2018-05-08T05:35:04.199Z,10.70
2018-05-08T05:37:31.787Z,10.80
2018-05-08T05:39:59.371Z,10.90
2018-05-08T05:42:26.871Z,10.90
2018-05-08T05:44:54.385Z,11.00
2018-05-08T05:47:21.920Z,11.10
2018-05-08T05:49:49.406Z,11.20
2018-05-08T05:52:16.914Z,11.20
2018-05-08T05:54:44.401Z,11.30
2018-05-08T05:57:11.914Z,11.30
2018-05-08T05:59:39.414Z,11.40
2018-05-08T06:02:06.909Z,11.50
2018-05-08T06:04:35.216Z,11.80
2018-05-08T06:07:02.701Z,11.80
2018-05-08T06:09:30.220Z,12.00
2018-05-08T06:11:58.567Z,12.10
2018-05-08T06:14:26.774Z,12.30
2018-05-08T06:16:54.289Z,12.20
2018-05-08T06:19:21.793Z,12.40
2018-05-08T06:21:49.306Z,12.50
2018-05-08T06:24:16.792Z,12.60
2018-05-08T06:26:45.079Z,12.80
2018-05-08T06:29:13.337Z,12.80
2018-05-08T06:31:41.604Z,12.80
2018-05-08T06:34:09.096Z,12.80
2018-05-08T06:36:36.685Z,13.00
2018-05-08T06:39:04.187Z,13.20
2018-05-08T06:41:31.700Z,13.30
2018-05-08T06:43:59.199Z,13.50
2018-05-08T06:46:27.488Z,13.70
2018-05-08T06:48:55.745Z,13.80
2018-05-08T06:51:23.262Z,13.80
2018-05-08T06:53:50.768Z,14.00
2018-05-08T06:56:18.259Z,14.10
2018-05-08T06:58:45.779Z,14.20
2018-05-08T07:01:13.287Z,14.30
2018-05-08T07:03:40.796Z,14.50
2018-05-08T07:06:08.304Z,14.60
2018-05-08T07:08:35.843Z,14.80
2018-05-08T07:11:04.113Z,15.00
2018-05-08T07:13:32.392Z,15.10
2018-05-08T07:16:00.676Z,15.50
2018-05-08T07:18:28.174Z,15.50
2018-05-08T07:20:55.695Z,16.10
2018-05-08T07:23:23.191Z,16.90
2018-05-08T07:25:50.697Z,17.80
2018-05-08T07:28:18.958Z,20.20
2018-05-08T07:30:46.495Z,20.20
2018-05-08T07:33:13.979Z,21.10
2018-05-08T07:35:42.611Z,23.40
2018-05-08T07:38:10.173Z,23.30
2018-05-08T07:40:37.650Z,24.30
2018-05-08T07:43:05.148Z,25.10
2018-05-08T07:45:33.504Z,26.60
2018-05-08T07:48:01.685Z,27.20
2018-05-08T07:50:29.192Z,27.20
2018-05-08T07:52:56.702Z,27.40
2018-05-08T07:55:24.191Z,27.70
2018-05-08T07:57:51.696Z,28.80
2018-05-08T08:00:19.176Z,29.40
2018-05-08T08:02:46.681Z,28.70
2018-05-08T08:05:14.211Z,28.40
2018-05-08T08:07:42.494Z,30.10
2018-05-08T08:10:10.011Z,30.00
2018-05-08T08:12:37.509Z,30.60
2018-05-08T08:15:05.796Z,30.40
2018-05-08T08:17:33.301Z,30.40
2018-05-08T08:20:00.832Z,31.30
2018-05-08T08:22:28.326Z,31.60
2018-05-08T08:24:55.835Z,30.90
2018-05-08T08:27:23.334Z,31.80
2018-05-08T08:29:50.920Z,32.70
2018-05-08T08:32:18.353Z,33.20
2018-05-08T08:34:45.834Z,33.30
2018-05-08T08:37:14.132Z,33.20
2018-05-08T08:39:41.629Z,33.30
2018-05-08T08:42:09.154Z,33.30
2018-05-08T08:44:36.658Z,33.20
2018-05-08T08:47:04.183Z,33.40
2018-05-08T08:49:31.669Z,33.80
2018-05-08T08:51:59.150Z,34.20
2018-05-08T08:54:26.651Z,34.10
2018-05-08T08:56:54.139Z,33.90
2018-05-08T08:59:21.633Z,33.70
2018-05-08T09:01:49.903Z,34.00
2018-05-08T09:04:17.414Z,33.90
2018-05-08T09:06:44.958Z,33.40
2018-05-08T09:09:12.487Z,33.30
2018-05-08T09:11:40.742Z,32.90
2018-05-08T09:14:08.269Z,32.90
2018-05-08T09:16:35.802Z,33.40
2018-05-08T09:19:04.817Z,33.00
2018-05-08T09:21:32.327Z,34.00
2018-05-08T09:23:59.822Z,33.80
2018-05-08T09:26:27.362Z,33.70
2018-05-08T09:28:55.635Z,33.80
2018-05-08T09:31:23.935Z,33.80
2018-05-08T09:33:51.405Z,33.80
2018-05-08T09:36:18.914Z,33.80
2018-05-08T09:38:46.467Z,33.60
2018-05-08T09:41:13.979Z,32.60
2018-05-08T09:43:41.469Z,33.20
2018-05-08T09:46:08.963Z,32.60
2018-05-08T09:48:37.241Z,32.90
2018-05-08T09:51:05.498Z,32.30
2018-05-08T09:53:33.012Z,32.30
2018-05-08T09:56:00.493Z,31.50
2018-05-08T09:58:28.000Z,32.00
2018-05-08T10:00:55.602Z,31.10
2018-05-08T10:03:23.836Z,31.40
2018-05-08T10:05:51.333Z,31.30
2018-05-08T10:08:18.826Z,31.80
2018-05-08T10:10:47.101Z,32.80
2018-05-08T10:13:15.361Z,31.90
2018-05-08T10:15:42.860Z,31.90
2018-05-08T10:18:10.357Z,30.90
2018-05-08T10:20:37.978Z,31.00
2018-05-08T10:23:05.427Z,30.70
2018-05-08T10:25:33.715Z,31.10
2018-05-08T10:28:01.211Z,31.10
2018-05-08T10:30:28.703Z,30.50
2018-05-08T10:32:56.277Z,30.60
2018-05-08T10:35:23.690Z,31.20
2018-05-08T10:37:51.205Z,31.20
2018-05-08T10:40:18.696Z,31.40
2018-05-08T10:42:46.288Z,31.50
2018-05-08T10:45:13.734Z,31.60
2018-05-08T10:47:41.249Z,31.00
2018-05-08T10:50:08.746Z,30.90
2018-05-08T10:52:36.249Z,30.90
2018-05-08T10:55:03.749Z,30.90
2018-05-08T10:57:31.229Z,31.30
2018-05-08T10:59:58.729Z,31.40
2018-05-08T11:02:26.209Z,30.60
2018-05-08T11:04:53.714Z,30.60
2018-05-08T11:07:21.216Z,30.80
2018-05-08T11:09:48.752Z,30.70
2018-05-08T11:12:16.267Z,30.30
2018-05-08T11:14:43.774Z,30.00
2018-05-08T11:17:11.268Z,29.00
2018-05-08T11:19:38.795Z,29.30
2018-05-08T11:22:07.044Z,29.50
2018-05-08T11:24:35.321Z,29.70
2018-05-08T11:27:03.581Z,29.40
2018-05-08T11:29:31.062Z,29.40
2018-05-08T11:31:59.353Z,29.00
2018-05-08T11:34:26.851Z,28.90
2018-05-08T11:36:54.358Z,29.10
2018-05-08T11:39:22.733Z,29.40
2018-05-08T11:41:50.145Z,29.40
2018-05-08T11:44:17.659Z,29.60
2018-05-08T11:46:45.158Z,30.00
2018-05-08T11:49:12.656Z,30.30
2018-05-08T11:51:40.925Z,30.30
2018-05-08T11:54:08.416Z,30.30
2018-05-08T11:56:35.919Z,29.50
2018-05-08T11:59:03.422Z,29.70
2018-05-08T12:01:30.920Z,30.10
2018-05-08T12:03:58.443Z,30.30
2018-05-08T12:06:25.925Z,29.70
2018-05-08T12:08:53.408Z,30.00
2018-05-08T12:11:20.919Z,29.10
2018-05-08T12:13:48.538Z,28.70
2018-05-08T12:16:16.033Z,29.50
2018-05-08T12:18:43.526Z,30.00
2018-05-08T12:21:11.039Z,31.00
2018-05-08T12:23:39.319Z,30.80
2018-05-08T12:26:07.597Z,30.00
2018-05-08T12:28:35.853Z,30.70
2018-05-08T12:31:03.350Z,30.80
2018-05-08T12:33:30.845Z,31.40
2018-05-08T12:35:58.321Z,31.00
2018-05-08T12:38:25.869Z,31.10
2018-05-08T12:40:53.371Z,31.60
2018-05-08T12:43:20.886Z,31.50
2018-05-08T12:45:48.378Z,31.70
2018-05-08T12:48:16.656Z,31.80
2018-05-08T12:50:44.924Z,31.50
2018-05-08T12:53:13.211Z,31.20
2018-05-08T12:55:41.460Z,31.40
2018-05-08T12:58:08.950Z,31.40
2018-05-08T13:00:36.480Z,31.30
2018-05-08T13:03:03.977Z,32.10
2018-05-08T13:05:31.490Z,32.50
2018-05-08T13:07:58.977Z,32.90
2018-05-08T13:10:27.250Z,33.40
2018-05-08T13:12:55.505Z,33.50
2018-05-08T13:15:23.045Z,33.50
2018-05-08T13:17:50.526Z,32.60
2018-05-08T13:20:18.040Z,33.10
2018-05-08T13:22:45.562Z,32.60
2018-05-08T13:25:13.823Z,33.50
2018-05-08T13:27:42.203Z,33.70
2018-05-08T13:30:09.735Z,33.70
2018-05-08T13:32:37.244Z,34.50
2018-05-08T13:35:04.738Z,34.50
2018-05-08T13:37:32.258Z,34.40
2018-05-08T13:39:59.756Z,34.40
2018-05-08T13:42:27.269Z,33.30
2018-05-08T13:44:54.757Z,33.30
2018-05-08T13:47:22.244Z,34.20
2018-05-08T13:49:49.757Z,34.30
2018-05-08T13:52:17.248Z,34.70
2018-05-08T13:54:44.771Z,35.10
2018-05-08T13:57:12.262Z,35.10
2018-05-08T13:59:39.765Z,35.70
2018-05-08T14:02:07.257Z,35.90
2018-05-08T14:04:34.775Z,35.10
2018-05-08T14:07:03.029Z,34.20
2018-05-08T14:09:30.529Z,34.20
2018-05-08T14:11:58.037Z,35.20
2018-05-08T14:14:25.567Z,34.80
2018-05-08T14:16:53.076Z,35.50
2018-05-08T14:19:20.606Z,35.60
2018-05-08T14:21:48.087Z,35.30
2018-05-08T14:24:15.581Z,35.50
2018-05-08T14:26:43.077Z,35.60
2018-05-08T14:29:10.570Z,35.80
2018-05-08T14:31:38.870Z,35.60
2018-05-08T14:34:07.113Z,34.60
2018-05-08T14:36:34.605Z,34.60
2018-05-08T14:39:02.102Z,33.70
2018-05-08T14:41:29.611Z,34.60
2018-05-08T14:43:57.886Z,34.60
2018-05-08T14:46:26.133Z,34.90
2018-05-08T14:48:53.630Z,34.90
2018-05-08T14:51:21.127Z,34.70
2018-05-08T14:53:48.643Z,35.30
2018-05-08T14:56:16.143Z,33.80
2018-05-08T14:58:43.647Z,34.00
2018-05-08T15:01:11.927Z,33.90
2018-05-08T15:03:40.195Z,32.90
2018-05-08T15:06:08.465Z,33.30
2018-05-08T15:08:35.950Z,33.30
2018-05-08T15:11:04.222Z,34.00
2018-05-08T15:13:31.714Z,34.00
2018-05-08T15:15:59.221Z,32.50
2018-05-08T15:18:27.491Z,34.00
2018-05-08T15:20:55.775Z,33.80
2018-05-08T15:23:24.030Z,34.50
2018-05-08T15:25:51.524Z,34.40
2018-05-08T15:28:19.017Z,35.20
2018-05-08T15:30:46.562Z,35.60
2018-05-08T15:33:14.072Z,34.40
2018-05-08T15:35:41.577Z,33.60
2018-05-08T15:38:09.091Z,32.50
2018-05-08T15:40:37.537Z,30.10
2018-05-08T15:43:05.051Z,30.10
2018-05-08T15:45:33.313Z,29.80
2018-05-08T15:48:01.557Z,29.00
2018-05-08T15:50:29.093Z,29.00
2018-05-08T15:52:56.578Z,28.60
2018-05-08T15:55:24.087Z,28.10
2018-05-08T15:57:51.602Z,27.20
2018-05-08T16:00:19.970Z,26.60
2018-05-08T16:02:47.515Z,26.60
2018-05-08T16:05:15.098Z,26.50
2018-05-08T16:07:42.581Z,26.30
2018-05-08T16:10:10.860Z,25.70
2018-05-08T16:12:39.126Z,25.70
2018-05-08T16:15:07.415Z,25.60
2018-05-08T16:17:35.681Z,25.00
2018-05-08T16:20:03.947Z,25.20
2018-05-08T16:22:32.225Z,25.30
2018-05-08T16:24:59.730Z,25.30
2018-05-08T16:27:27.242Z,25.20
2018-05-08T16:29:55.523Z,24.90
2018-05-08T16:32:23.815Z,24.60
2018-05-08T16:34:52.078Z,24.40
2018-05-08T16:37:20.332Z,24.50
2018-05-08T16:39:47.851Z,24.50
2018-05-08T16:42:15.341Z,24.40
2018-05-08T16:44:42.844Z,24.30
2018-05-08T16:47:10.340Z,24.00
2018-05-08T16:49:37.859Z,24.10
2018-05-08T16:52:05.365Z,23.90
2018-05-08T16:54:32.874Z,23.90
2018-05-08T16:57:01.140Z,23.40
2018-05-08T16:59:29.439Z,23.10
2018-05-08T17:01:57.708Z,23.10
2018-05-08T17:04:25.247Z,23.00
2018-05-08T17:06:53.543Z,23.10
2018-05-08T17:09:21.047Z,23.10
2018-05-08T17:11:48.547Z,22.90
2018-05-08T17:14:16.801Z,22.80
2018-05-08T17:16:44.311Z,22.80
2018-05-08T17:19:11.832Z,22.80
2018-05-08T17:21:40.124Z,22.70
2018-05-08T17:24:08.372Z,22.70
2018-05-08T17:26:35.920Z,22.60
2018-05-08T17:29:03.431Z,22.50
2018-05-08T17:31:30.950Z,22.80
2018-05-08T17:33:58.560Z,22.70
2018-05-08T17:36:26.088Z,22.50
2018-05-08T17:38:54.364Z,22.30
2018-05-08T17:41:23.015Z,22.40
2018-05-08T17:43:51.346Z,22.40
2018-05-08T17:46:18.825Z,22.40
2018-05-08T17:48:46.322Z,22.40
2018-05-08T17:51:13.843Z,22.40
2018-05-08T17:53:41.342Z,22.30
2018-05-08T17:56:08.854Z,22.00
2018-05-08T17:58:36.329Z,21.80
2018-05-08T18:01:03.850Z,21.90
2018-05-08T18:03:31.333Z,21.80
2018-05-08T18:05:59.421Z,21.90
2018-05-08T18:08:26.928Z,21.70
2018-05-08T18:10:55.224Z,21.40
2018-05-08T18:13:22.709Z,21.40
2018-05-08T18:15:50.297Z,21.30
2018-05-08T18:18:17.818Z,21.30
2018-05-08T18:20:45.310Z,21.10
2018-05-08T18:23:12.937Z,21.00
2018-05-08T18:25:40.540Z,20.90
2018-05-08T18:28:09.759Z,20.80
2018-05-08T18:30:38.023Z,20.70
2018-05-08T18:33:06.445Z,20.70
2018-05-08T18:35:33.921Z,20.70
2018-05-08T18:38:02.401Z,20.60
2018-05-08T18:40:29.916Z,20.60
2018-05-08T18:42:57.421Z,20.50
2018-05-08T18:45:24.982Z,20.40
2018-05-08T18:47:52.475Z,20.10
2018-05-08T18:50:20.745Z,20.00
2018-05-08T18:52:49.003Z,20.00
2018-05-08T18:55:16.519Z,19.90
2018-05-08T18:57:44.105Z,19.80
2018-05-08T19:00:17.171Z,19.80
2018-05-08T19:02:44.668Z,19.70
2018-05-08T19:05:12.191Z,19.60
2018-05-08T19:07:39.685Z,19.60
2018-05-08T19:10:07.167Z,19.50
2018-05-08T19:12:35.428Z,19.40
2018-05-08T19:15:08.701Z,19.40
2018-05-08T19:17:36.196Z,19.30
2018-05-08T19:20:05.289Z,19.30
2018-05-08T19:22:33.639Z,19.20
2018-05-08T19:25:01.147Z,19.20
2018-05-08T19:27:28.685Z,19.20
2018-05-08T19:30:02.712Z,19.10
2018-05-08T19:32:30.227Z,19.10
2018-05-08T19:35:03.357Z,19.00
2018-05-08T19:37:36.634Z,18.90
2018-05-08T19:40:04.885Z,18.80
2018-05-08T19:42:32.377Z,18.70
2018-05-08T19:45:00.665Z,18.60
2018-05-08T19:47:28.134Z,18.60
2018-05-08T19:49:55.629Z,18.50
2018-05-08T19:52:23.139Z,18.40
2018-05-08T19:54:50.642Z,18.40
2018-05-08T19:57:18.135Z,18.30
2018-05-08T19:59:46.407Z,18.10
2018-05-08T20:02:14.670Z,18.10
2018-05-08T20:04:42.173Z,18.00
2018-05-08T20:07:09.670Z,18.10
2018-05-08T20:09:37.923Z,18.00
2018-05-08T20:12:05.411Z,18.00
2018-05-08T20:14:32.906Z,17.80
2018-05-08T20:17:01.178Z,17.80
2018-05-08T20:19:29.454Z,17.70
2018-05-08T20:21:57.760Z,17.60
2018-05-08T20:24:25.338Z,17.60
2018-05-08T20:26:52.839Z,17.60
2018-05-08T20:29:21.102Z,17.40
2018-05-08T20:31:50.084Z,17.30
2018-05-08T20:34:17.593Z,17.40
2018-05-08T20:36:45.073Z,17.30
2018-05-08T20:39:12.610Z,17.30
2018-05-08T20:41:40.161Z,17.20
2018-05-08T20:44:07.711Z,17.20
2018-05-08T20:46:36.013Z,17.00
2018-05-08T20:49:03.658Z,17.00
2018-05-08T20:51:31.207Z,17.00
2018-05-08T20:53:59.500Z,16.80
2018-05-08T20:56:28.417Z,16.80
2018-05-08T20:58:56.281Z,16.70
2018-05-08T21:01:26.727Z,16.70
2018-05-08T21:03:54.284Z,16.60
2018-05-08T21:06:21.805Z,16.50
2018-05-08T21:08:49.435Z,16.40
2018-05-08T21:11:17.826Z,16.20
2018-05-08T21:13:47.370Z,16.20
2018-05-08T21:16:14.930Z,16.20
2018-05-08T21:18:42.491Z,16.10
2018-05-08T21:21:10.028Z,16.10
2018-05-08T21:23:37.667Z,16.00
2018-05-08T21:26:05.918Z,15.90
2018-05-08T21:28:39.176Z,15.90
2018-05-08T21:31:12.327Z,15.90
2018-05-08T21:33:40.942Z,15.80
2018-05-08T21:36:08.465Z,15.80
2018-05-08T21:38:36.768Z,15.70
2018-05-08T21:41:04.268Z,15.70
2018-05-08T21:43:33.134Z,15.60
2018-05-08T21:46:00.745Z,15.60
2018-05-08T21:48:29.373Z,15.60
2018-05-08T21:50:56.901Z,15.60
2018-05-08T21:53:24.405Z,15.50
2018-05-08T21:55:51.905Z,15.50
2018-05-08T21:58:20.161Z,15.30
2018-05-08T22:00:47.711Z,15.30
2018-05-08T22:03:15.210Z,15.20
2018-05-08T22:05:43.553Z,15.20
2018-05-08T22:08:11.068Z,15.10
2018-05-08T22:10:38.550Z,15.10
2018-05-08T22:13:06.050Z,15.10
2018-05-08T22:15:34.305Z,15.10
2018-05-08T22:18:01.815Z,15.10
2018-05-08T22:20:29.308Z,15.00
2018-05-08T22:22:56.811Z,15.00
2018-05-08T22:25:25.065Z,14.90
2018-05-08T22:27:52.549Z,14.90
2018-05-08T22:30:20.816Z,14.80
2018-05-08T22:32:49.330Z,14.70
2018-05-08T22:35:16.995Z,14.70
2018-05-08T22:37:44.654Z,14.70
2018-05-08T22:40:12.312Z,14.70
2018-05-08T22:42:39.927Z,14.70
2018-05-08T22:45:08.356Z,14.70
2018-05-08T22:47:35.884Z,14.60
2018-05-08T22:50:04.176Z,14.50
2018-05-08T22:52:31.665Z,14.50
2018-05-08T22:54:59.141Z,14.50
2018-05-08T22:57:26.641Z,14.50
2018-05-08T22:59:54.129Z,14.50
2018-05-08T23:02:21.637Z,14.40
2018-05-08T23:04:49.127Z,14.30
2018-05-08T23:07:16.629Z,14.30
2018-05-08T23:09:44.118Z,14.30
2018-05-08T23:12:12.394Z,14.10
2018-05-08T23:14:40.653Z,14.10
2018-05-08T23:17:08.150Z,14.00
2018-05-08T23:19:35.648Z,14.00
2018-05-08T23:22:03.156Z,13.90
2018-05-08T23:24:31.436Z,13.90
2018-05-08T23:26:58.934Z,13.90
2018-05-08T23:29:26.433Z,13.90
2018-05-08T23:31:54.700Z,13.90
2018-05-08T23:34:22.197Z,13.80
2018-05-08T23:36:49.695Z,13.80
2018-05-08T23:39:17.212Z,13.90
2018-05-08T23:41:44.706Z,13.80
2018-05-08T23:44:14.282Z,13.80
2018-05-08T23:46:41.808Z,13.70
2018-05-08T23:49:10.054Z,13.60
2018-05-08T23:51:37.549Z,13.70
2018-05-08T23:54:05.793Z,13.50
2018-05-08T23:56:33.288Z,13.50
2018-05-08T23:59:01.540Z,13.40
